sensor_id;sensor_type;location;lat;lon;timestamp;P1;durP1;ratioP1;P2;durP2;ratioP2
15889;SDS011;8043;49.388;12.128;2023-07-20T00:11:51;3.72;;;2.08;;
15889;SDS011;8043;49.388;12.128;2023-07-20T00:16:55;4.12;;;2.22;;
15889;SDS011;8043;49.388;12.128;2023-07-20T00:21:57;5.65;;;2.35;;
15889;SDS011;8043;49.388;12.128;2023-07-20T00:32:01;3.25;;;2.33;;
15889;SDS011;8043;49.388;12.128;2023-07-20T00:37:05;16.00;;;7.17;;
15889;SDS011;8043;49.388;12.128;2023-07-20T00:42:07;14.05;;;7.40;;
15889;SDS011;8043;49.388;12.128;2023-07-20T00:47:10;20.35;;;7.22;;
15889;SDS011;8043;49.388;12.128;2023-07-20T00:52:13;15.10;;;6.00;;
15889;SDS011;8043;49.388;12.128;2023-07-20T00:57:15;11.78;;;4.50;;
15889;SDS011;8043;49.388;12.128;2023-07-20T01:02:19;10.00;;;4.62;;
15889;SDS011;8043;49.388;12.128;2023-07-20T01:12:46;5.67;;;2.80;;
15889;SDS011;8043;49.388;12.128;2023-07-20T01:17:43;5.78;;;3.22;;
15889;SDS011;8043;49.388;12.128;2023-07-20T01:28:29;4.30;;;2.42;;
15889;SDS011;8043;49.388;12.128;2023-07-20T01:33:45;3.70;;;2.47;;
15889;SDS011;8043;49.388;12.128;2023-07-20T01:38:48;4.37;;;1.85;;
15889;SDS011;8043;49.388;12.128;2023-07-20T01:43:51;4.53;;;2.10;;
15889;SDS011;8043;49.388;12.128;2023-07-20T01:48:53;12.23;;;2.60;;
15889;SDS011;8043;49.388;12.128;2023-07-20T01:53:55;5.10;;;2.55;;
15889;SDS011;8043;49.388;12.128;2023-07-20T01:58:57;6.28;;;2.60;;
15889;SDS011;8043;49.388;12.128;2023-07-20T02:04:00;7.65;;;2.77;;
15889;SDS011;8043;49.388;12.128;2023-07-20T02:09:03;2.77;;;2.10;;
15889;SDS011;8043;49.388;12.128;2023-07-20T02:14:05;8.48;;;2.60;;
15889;SDS011;8043;49.388;12.128;2023-07-20T02:24:09;4.33;;;2.58;;
15889;SDS011;8043;49.388;12.128;2023-07-20T02:29:11;5.80;;;2.33;;
15889;SDS011;8043;49.388;12.128;2023-07-20T02:34:14;6.20;;;2.80;;
15889;SDS011;8043;49.388;12.128;2023-07-20T02:39:16;7.83;;;2.80;;
15889;SDS011;8043;49.388;12.128;2023-07-20T02:44:18;5.97;;;2.80;;
15889;SDS011;8043;49.388;12.128;2023-07-20T02:49:20;4.65;;;2.70;;
15889;SDS011;8043;49.388;12.128;2023-07-20T02:54:23;9.60;;;3.33;;
15889;SDS011;8043;49.388;12.128;2023-07-20T02:59:25;8.00;;;2.72;;
15889;SDS011;8043;49.388;12.128;2023-07-20T03:04:27;8.63;;;2.67;;
15889;SDS011;8043;49.388;12.128;2023-07-20T03:09:29;8.70;;;3.35;;
15889;SDS011;8043;49.388;12.128;2023-07-20T03:14:31;13.58;;;5.37;;
15889;SDS011;8043;49.388;12.128;2023-07-20T03:19:33;6.30;;;3.58;;
15889;SDS011;8043;49.388;12.128;2023-07-20T03:24:36;4.97;;;2.47;;
15889;SDS011;8043;49.388;12.128;2023-07-20T03:29:38;4.17;;;2.42;;
15889;SDS011;8043;49.388;12.128;2023-07-20T03:34:40;6.83;;;2.67;;
15889;SDS011;8043;49.388;12.128;2023-07-20T03:39:42;12.18;;;2.58;;
15889;SDS011;8043;49.388;12.128;2023-07-20T03:44:44;6.00;;;2.42;;
15889;SDS011;8043;49.388;12.128;2023-07-20T03:49:47;3.83;;;2.55;;
15889;SDS011;8043;49.388;12.128;2023-07-20T03:54:49;4.12;;;2.40;;
15889;SDS011;8043;49.388;12.128;2023-07-20T03:59:54;4.37;;;2.47;;
15889;SDS011;8043;49.388;12.128;2023-07-20T04:04:56;6.40;;;2.87;;
15889;SDS011;8043;49.388;12.128;2023-07-20T04:09:58;6.35;;;3.40;;
15889;SDS011;8043;49.388;12.128;2023-07-20T04:15:02;5.83;;;2.83;;
15889;SDS011;8043;49.388;12.128;2023-07-20T04:20:04;7.30;;;2.40;;
15889;SDS011;8043;49.388;12.128;2023-07-20T04:25:08;9.55;;;2.83;;
15889;SDS011;8043;49.388;12.128;2023-07-20T04:30:10;5.25;;;2.27;;
15889;SDS011;8043;49.388;12.128;2023-07-20T04:35:17;7.85;;;3.30;;
15889;SDS011;8043;49.388;12.128;2023-07-20T04:40:21;4.17;;;3.00;;
15889;SDS011;8043;49.388;12.128;2023-07-20T04:45:23;5.03;;;3.42;;
15889;SDS011;8043;49.388;12.128;2023-07-20T04:50:26;3.95;;;2.60;;
15889;SDS011;8043;49.388;12.128;2023-07-20T04:55:28;4.47;;;2.90;;
15889;SDS011;8043;49.388;12.128;2023-07-20T05:00:34;5.45;;;2.60;;
15889;SDS011;8043;49.388;12.128;2023-07-20T05:05:36;6.33;;;3.02;;
15889;SDS011;8043;49.388;12.128;2023-07-20T05:10:38;9.83;;;4.37;;
15889;SDS011;8043;49.388;12.128;2023-07-20T05:15:41;10.88;;;4.85;;
15889;SDS011;8043;49.388;12.128;2023-07-20T05:20:43;6.53;;;2.83;;
15889;SDS011;8043;49.388;12.128;2023-07-20T05:25:56;10.85;;;3.42;;
15889;SDS011;8043;49.388;12.128;2023-07-20T05:31:01;8.80;;;3.55;;
15889;SDS011;8043;49.388;12.128;2023-07-20T05:36:05;10.38;;;3.30;;
15889;SDS011;8043;49.388;12.128;2023-07-20T05:46:11;6.20;;;3.60;;
15889;SDS011;8043;49.388;12.128;2023-07-20T05:51:13;6.37;;;3.05;;
15889;SDS011;8043;49.388;12.128;2023-07-20T05:56:15;9.00;;;3.40;;
15889;SDS011;8043;49.388;12.128;2023-07-20T06:01:19;7.25;;;3.00;;
15889;SDS011;8043;49.388;12.128;2023-07-20T06:06:21;5.80;;;2.85;;
15889;SDS011;8043;49.388;12.128;2023-07-20T06:11:24;5.90;;;2.70;;
15889;SDS011;8043;49.388;12.128;2023-07-20T06:16:26;4.78;;;3.20;;
15889;SDS011;8043;49.388;12.128;2023-07-20T06:21:28;3.77;;;2.87;;
15889;SDS011;8043;49.388;12.128;2023-07-20T06:26:30;8.73;;;2.87;;
15889;SDS011;8043;49.388;12.128;2023-07-20T06:31:35;3.75;;;2.67;;
15889;SDS011;8043;49.388;12.128;2023-07-20T06:36:37;4.75;;;2.70;;
15889;SDS011;8043;49.388;12.128;2023-07-20T06:41:39;7.40;;;3.67;;
15889;SDS011;8043;49.388;12.128;2023-07-20T06:46:42;5.33;;;2.67;;
15889;SDS011;8043;49.388;12.128;2023-07-20T06:51:44;3.25;;;2.60;;
15889;SDS011;8043;49.388;12.128;2023-07-20T06:56:46;4.58;;;2.87;;
15889;SDS011;8043;49.388;12.128;2023-07-20T07:01:48;3.75;;;2.55;;
15889;SDS011;8043;49.388;12.128;2023-07-20T07:06:51;11.83;;;3.12;;
15889;SDS011;8043;49.388;12.128;2023-07-20T07:11:53;12.03;;;2.75;;
15889;SDS011;8043;49.388;12.128;2023-07-20T07:16:55;6.75;;;2.98;;
15889;SDS011;8043;49.388;12.128;2023-07-20T07:21:57;4.62;;;2.33;;
15889;SDS011;8043;49.388;12.128;2023-07-20T07:27:00;3.62;;;1.95;;
15889;SDS011;8043;49.388;12.128;2023-07-20T07:37:04;4.67;;;1.87;;
15889;SDS011;8043;49.388;12.128;2023-07-20T07:42:06;8.58;;;2.12;;
15889;SDS011;8043;49.388;12.128;2023-07-20T07:47:09;3.70;;;2.08;;
15889;SDS011;8043;49.388;12.128;2023-07-20T07:52:11;2.40;;;1.77;;
15889;SDS011;8043;49.388;12.128;2023-07-20T07:57:14;7.62;;;2.22;;
15889;SDS011;8043;49.388;12.128;2023-07-20T08:02:17;6.83;;;2.15;;
15889;SDS011;8043;49.388;12.128;2023-07-20T08:07:20;7.05;;;2.67;;
15889;SDS011;8043;49.388;12.128;2023-07-20T08:12:22;5.75;;;1.80;;
15889;SDS011;8043;49.388;12.128;2023-07-20T08:17:25;6.35;;;2.00;;
15889;SDS011;8043;49.388;12.128;2023-07-20T08:22:27;9.65;;;2.27;;
15889;SDS011;8043;49.388;12.128;2023-07-20T08:27:29;3.02;;;1.60;;
15889;SDS011;8043;49.388;12.128;2023-07-20T08:37:33;7.95;;;1.70;;
15889;SDS011;8043;49.388;12.128;2023-07-20T08:42:37;3.30;;;1.80;;
15889;SDS011;8043;49.388;12.128;2023-07-20T08:47:39;1.87;;;1.65;;
15889;SDS011;8043;49.388;12.128;2023-07-20T08:52:44;1.87;;;1.22;;
15889;SDS011;8043;49.388;12.128;2023-07-20T08:57:46;2.85;;;1.50;;
15889;SDS011;8043;49.388;12.128;2023-07-20T09:02:56;7.87;;;1.27;;
15889;SDS011;8043;49.388;12.128;2023-07-20T09:07:56;1.82;;;1.35;;
15889;SDS011;8043;49.388;12.128;2023-07-20T09:12:58;4.28;;;1.40;;
15889;SDS011;8043;49.388;12.128;2023-07-20T09:18:01;2.33;;;1.40;;
15889;SDS011;8043;49.388;12.128;2023-07-20T09:23:04;3.20;;;1.55;;
15889;SDS011;8043;49.388;12.128;2023-07-20T09:28:08;6.47;;;1.57;;
15889;SDS011;8043;49.388;12.128;2023-07-20T09:33:18;2.15;;;1.40;;
15889;SDS011;8043;49.388;12.128;2023-07-20T09:38:21;7.12;;;1.52;;
15889;SDS011;8043;49.388;12.128;2023-07-20T09:43:23;2.75;;;1.30;;
15889;SDS011;8043;49.388;12.128;2023-07-20T09:53:27;7.40;;;1.95;;
15889;SDS011;8043;49.388;12.128;2023-07-20T09:58:30;1.92;;;1.10;;
15889;SDS011;8043;49.388;12.128;2023-07-20T10:03:35;2.45;;;1.10;;
15889;SDS011;8043;49.388;12.128;2023-07-20T10:08:39;1.15;;;1.00;;
15889;SDS011;8043;49.388;12.128;2023-07-20T10:13:43;7.10;;;1.65;;
15889;SDS011;8043;49.388;12.128;2023-07-20T10:18:55;2.65;;;1.52;;
15889;SDS011;8043;49.388;12.128;2023-07-20T10:23:56;1.40;;;1.10;;
15889;SDS011;8043;49.388;12.128;2023-07-20T10:28:59;5.67;;;1.47;;
15889;SDS011;8043;49.388;12.128;2023-07-20T10:34:01;2.17;;;1.25;;
15889;SDS011;8043;49.388;12.128;2023-07-20T10:39:04;2.83;;;1.40;;
15889;SDS011;8043;49.388;12.128;2023-07-20T10:44:09;9.45;;;1.35;;
15889;SDS011;8043;49.388;12.128;2023-07-20T10:49:12;3.55;;;1.17;;
15889;SDS011;8043;49.388;12.128;2023-07-20T11:04:43;3.85;;;1.10;;
15889;SDS011;8043;49.388;12.128;2023-07-20T11:09:46;6.67;;;1.27;;
15889;SDS011;8043;49.388;12.128;2023-07-20T11:14:55;4.93;;;1.23;;
15889;SDS011;8043;49.388;12.128;2023-07-20T11:19:58;2.00;;;1.20;;
15889;SDS011;8043;49.388;12.128;2023-07-20T11:25:02;5.33;;;1.32;;
15889;SDS011;8043;49.388;12.128;2023-07-20T11:30:14;2.75;;;1.10;;
15889;SDS011;8043;49.388;12.128;2023-07-20T11:35:12;3.77;;;1.20;;
15889;SDS011;8043;49.388;12.128;2023-07-20T11:40:14;2.80;;;1.23;;
15889;SDS011;8043;49.388;12.128;2023-07-20T11:45:17;1.07;;;0.95;;
15889;SDS011;8043;49.388;12.128;2023-07-20T11:50:20;3.37;;;1.20;;
15889;SDS011;8043;49.388;12.128;2023-07-20T11:55:22;1.00;;;0.82;;
15889;SDS011;8043;49.388;12.128;2023-07-20T12:00:25;2.80;;;1.05;;
15889;SDS011;8043;49.388;12.128;2023-07-20T12:10:28;2.60;;;1.12;;
15889;SDS011;8043;49.388;12.128;2023-07-20T12:15:31;2.42;;;0.85;;
15889;SDS011;8043;49.388;12.128;2023-07-20T12:20:34;1.30;;;0.90;;
15889;SDS011;8043;49.388;12.128;2023-07-20T12:25:37;6.05;;;1.20;;
15889;SDS011;8043;49.388;12.128;2023-07-20T12:30:41;1.82;;;1.00;;
15889;SDS011;8043;49.388;12.128;2023-07-20T12:35:44;13.37;;;1.27;;
15889;SDS011;8043;49.388;12.128;2023-07-20T12:45:48;7.47;;;1.20;;
15889;SDS011;8043;49.388;12.128;2023-07-20T12:55:52;9.77;;;0.90;;
15889;SDS011;8043;49.388;12.128;2023-07-20T13:00:55;2.02;;;0.80;;
15889;SDS011;8043;49.388;12.128;2023-07-20T13:10:58;1.03;;;0.80;;
15889;SDS011;8043;49.388;12.128;2023-07-20T13:16:01;1.52;;;0.60;;
15889;SDS011;8043;49.388;12.128;2023-07-20T13:21:03;3.20;;;0.80;;
15889;SDS011;8043;49.388;12.128;2023-07-20T13:26:07;7.05;;;1.00;;
15889;SDS011;8043;49.388;12.128;2023-07-20T13:41:12;4.08;;;1.00;;
15889;SDS011;8043;49.388;12.128;2023-07-20T13:46:15;1.15;;;0.75;;
15889;SDS011;8043;49.388;12.128;2023-07-20T13:51:17;3.75;;;0.70;;
15889;SDS011;8043;49.388;12.128;2023-07-20T13:56:20;4.65;;;0.78;;
15889;SDS011;8043;49.388;12.128;2023-07-20T14:01:22;1.02;;;0.65;;
15889;SDS011;8043;49.388;12.128;2023-07-20T14:06:25;1.10;;;0.75;;
15889;SDS011;8043;49.388;12.128;2023-07-20T14:11:29;4.58;;;0.90;;
15889;SDS011;8043;49.388;12.128;2023-07-20T14:16:31;1.37;;;0.72;;
15889;SDS011;8043;49.388;12.128;2023-07-20T14:21:33;3.73;;;0.90;;
15889;SDS011;8043;49.388;12.128;2023-07-20T14:26:35;1.47;;;0.78;;
15889;SDS011;8043;49.388;12.128;2023-07-20T14:31:38;1.82;;;0.85;;
15889;SDS011;8043;49.388;12.128;2023-07-20T14:36:40;0.53;;;0.53;;
15889;SDS011;8043;49.388;12.128;2023-07-20T14:41:42;1.13;;;0.93;;
15889;SDS011;8043;49.388;12.128;2023-07-20T14:46:44;1.02;;;0.70;;
15889;SDS011;8043;49.388;12.128;2023-07-20T14:51:47;2.52;;;1.37;;
15889;SDS011;8043;49.388;12.128;2023-07-20T14:56:50;2.37;;;0.80;;
15889;SDS011;8043;49.388;12.128;2023-07-20T15:01:56;1.05;;;0.57;;
15889;SDS011;8043;49.388;12.128;2023-07-20T15:06:59;1.40;;;0.75;;
15889;SDS011;8043;49.388;12.128;2023-07-20T15:12:01;3.47;;;0.93;;
15889;SDS011;8043;49.388;12.128;2023-07-20T15:17:03;1.00;;;0.90;;
15889;SDS011;8043;49.388;12.128;2023-07-20T15:22:05;1.47;;;0.72;;
15889;SDS011;8043;49.388;12.128;2023-07-20T15:27:08;3.93;;;0.70;;
15889;SDS011;8043;49.388;12.128;2023-07-20T15:32:11;2.12;;;0.78;;
15889;SDS011;8043;49.388;12.128;2023-07-20T15:37:13;1.15;;;0.70;;
15889;SDS011;8043;49.388;12.128;2023-07-20T15:42:15;2.52;;;0.90;;
15889;SDS011;8043;49.388;12.128;2023-07-20T15:47:17;1.13;;;0.63;;
15889;SDS011;8043;49.388;12.128;2023-07-20T15:52:19;1.25;;;0.90;;
15889;SDS011;8043;49.388;12.128;2023-07-20T15:57:22;4.47;;;1.07;;
15889;SDS011;8043;49.388;12.128;2023-07-20T16:02:24;1.90;;;1.00;;
15889;SDS011;8043;49.388;12.128;2023-07-20T16:07:26;1.12;;;0.75;;
15889;SDS011;8043;49.388;12.128;2023-07-20T16:12:30;0.78;;;0.78;;
15889;SDS011;8043;49.388;12.128;2023-07-20T16:17:32;2.47;;;0.80;;
15889;SDS011;8043;49.388;12.128;2023-07-20T16:22:34;0.90;;;0.70;;
15889;SDS011;8043;49.388;12.128;2023-07-20T16:27:36;2.20;;;1.07;;
15889;SDS011;8043;49.388;12.128;2023-07-20T16:32:40;1.65;;;0.93;;
15889;SDS011;8043;49.388;12.128;2023-07-20T16:37:45;1.00;;;0.80;;
15889;SDS011;8043;49.388;12.128;2023-07-20T16:47:48;6.77;;;1.17;;
15889;SDS011;8043;49.388;12.128;2023-07-20T16:52:51;3.95;;;1.10;;
15889;SDS011;8043;49.388;12.128;2023-07-20T16:57:53;1.05;;;0.72;;
15889;SDS011;8043;49.388;12.128;2023-07-20T17:07:57;2.55;;;1.00;;
15889;SDS011;8043;49.388;12.128;2023-07-20T17:12:59;4.37;;;1.17;;
15889;SDS011;8043;49.388;12.128;2023-07-20T17:18:02;2.95;;;1.35;;
15889;SDS011;8043;49.388;12.128;2023-07-20T17:28:05;3.90;;;0.93;;
15889;SDS011;8043;49.388;12.128;2023-07-20T17:33:08;2.00;;;0.95;;
15889;SDS011;8043;49.388;12.128;2023-07-20T17:38:10;1.35;;;1.00;;
15889;SDS011;8043;49.388;12.128;2023-07-20T17:43:12;2.75;;;0.90;;
15889;SDS011;8043;49.388;12.128;2023-07-20T17:48:16;1.35;;;0.72;;
15889;SDS011;8043;49.388;12.128;2023-07-20T17:53:18;1.90;;;1.20;;
15889;SDS011;8043;49.388;12.128;2023-07-20T18:03:22;1.87;;;0.87;;
15889;SDS011;8043;49.388;12.128;2023-07-20T18:08:24;5.00;;;1.57;;
15889;SDS011;8043;49.388;12.128;2023-07-20T18:13:26;12.75;;;1.30;;
15889;SDS011;8043;49.388;12.128;2023-07-20T18:18:29;1.05;;;0.95;;
15889;SDS011;8043;49.388;12.128;2023-07-20T18:23:31;1.17;;;0.90;;
15889;SDS011;8043;49.388;12.128;2023-07-20T18:28:33;3.17;;;0.82;;
15889;SDS011;8043;49.388;12.128;2023-07-20T18:33:35;2.05;;;1.22;;
15889;SDS011;8043;49.388;12.128;2023-07-20T18:38:37;2.75;;;1.30;;
15889;SDS011;8043;49.388;12.128;2023-07-20T18:43:40;2.12;;;1.10;;
15889;SDS011;8043;49.388;12.128;2023-07-20T18:53:45;0.95;;;0.80;;
15889;SDS011;8043;49.388;12.128;2023-07-20T18:58:47;2.37;;;1.17;;
15889;SDS011;8043;49.388;12.128;2023-07-20T19:03:50;1.57;;;1.00;;
15889;SDS011;8043;49.388;12.128;2023-07-20T19:08:52;5.78;;;1.55;;
15889;SDS011;8043;49.388;12.128;2023-07-20T19:13:54;11.97;;;1.32;;
15889;SDS011;8043;49.388;12.128;2023-07-20T19:18:57;2.15;;;1.40;;
15889;SDS011;8043;49.388;12.128;2023-07-20T19:29:00;1.42;;;1.10;;
15889;SDS011;8043;49.388;12.128;2023-07-20T19:34:03;6.47;;;1.30;;
15889;SDS011;8043;49.388;12.128;2023-07-20T19:39:05;1.52;;;1.00;;
15889;SDS011;8043;49.388;12.128;2023-07-20T19:44:07;1.65;;;1.35;;
15889;SDS011;8043;49.388;12.128;2023-07-20T19:49:10;1.98;;;1.42;;
15889;SDS011;8043;49.388;12.128;2023-07-20T19:54:12;9.35;;;1.37;;
15889;SDS011;8043;49.388;12.128;2023-07-20T19:59:14;2.45;;;1.30;;
15889;SDS011;8043;49.388;12.128;2023-07-20T20:04:17;1.35;;;1.22;;
15889;SDS011;8043;49.388;12.128;2023-07-20T20:09:20;3.35;;;1.27;;
15889;SDS011;8043;49.388;12.128;2023-07-20T20:14:23;4.08;;;1.30;;
15889;SDS011;8043;49.388;12.128;2023-07-20T20:19:26;1.72;;;1.32;;
15889;SDS011;8043;49.388;12.128;2023-07-20T20:24:29;2.67;;;1.30;;
15889;SDS011;8043;49.388;12.128;2023-07-20T20:29:31;2.77;;;1.27;;
15889;SDS011;8043;49.388;12.128;2023-07-20T20:34:35;3.67;;;1.40;;
15889;SDS011;8043;49.388;12.128;2023-07-20T20:39:37;1.97;;;1.37;;
15889;SDS011;8043;49.388;12.128;2023-07-20T20:44:40;1.82;;;1.25;;
15889;SDS011;8043;49.388;12.128;2023-07-20T20:49:42;1.60;;;1.30;;
15889;SDS011;8043;49.388;12.128;2023-07-20T20:54:46;2.42;;;1.30;;
15889;SDS011;8043;49.388;12.128;2023-07-20T20:59:48;2.80;;;1.20;;
15889;SDS011;8043;49.388;12.128;2023-07-20T21:04:51;4.37;;;1.60;;
15889;SDS011;8043;49.388;12.128;2023-07-20T21:14:55;2.10;;;1.32;;
15889;SDS011;8043;49.388;12.128;2023-07-20T21:19:57;2.95;;;1.25;;
15889;SDS011;8043;49.388;12.128;2023-07-20T21:24:59;1.93;;;1.37;;
15889;SDS011;8043;49.388;12.128;2023-07-20T21:30:02;5.53;;;1.27;;
15889;SDS011;8043;49.388;12.128;2023-07-20T21:40:07;3.62;;;1.70;;
15889;SDS011;8043;49.388;12.128;2023-07-20T21:45:10;2.77;;;1.12;;
15889;SDS011;8043;49.388;12.128;2023-07-20T21:50:12;2.12;;;1.20;;
15889;SDS011;8043;49.388;12.128;2023-07-20T21:55:14;3.70;;;1.70;;
15889;SDS011;8043;49.388;12.128;2023-07-20T22:00:17;5.78;;;1.40;;
15889;SDS011;8043;49.388;12.128;2023-07-20T22:05:20;1.92;;;1.67;;
15889;SDS011;8043;49.388;12.128;2023-07-20T22:10:22;2.60;;;1.57;;
15889;SDS011;8043;49.388;12.128;2023-07-20T22:15:26;1.53;;;1.33;;
15889;SDS011;8043;49.388;12.128;2023-07-20T22:20:28;3.75;;;1.47;;
15889;SDS011;8043;49.388;12.128;2023-07-20T22:30:32;4.25;;;2.65;;
15889;SDS011;8043;49.388;12.128;2023-07-20T22:35:34;2.95;;;2.15;;
15889;SDS011;8043;49.388;12.128;2023-07-20T22:40:36;2.25;;;1.70;;
15889;SDS011;8043;49.388;12.128;2023-07-20T22:45:39;2.27;;;1.52;;
15889;SDS011;8043;49.388;12.128;2023-07-20T22:50:41;6.92;;;1.60;;
15889;SDS011;8043;49.388;12.128;2023-07-20T22:55:45;3.13;;;1.50;;
15889;SDS011;8043;49.388;12.128;2023-07-20T23:00:47;1.90;;;1.50;;
15889;SDS011;8043;49.388;12.128;2023-07-20T23:05:50;2.62;;;1.62;;
15889;SDS011;8043;49.388;12.128;2023-07-20T23:10:53;3.95;;;2.05;;
15889;SDS011;8043;49.388;12.128;2023-07-20T23:15:56;6.08;;;1.70;;
15889;SDS011;8043;49.388;12.128;2023-07-20T23:20:58;1.67;;;1.42;;
15889;SDS011;8043;49.388;12.128;2023-07-20T23:31:03;1.95;;;1.40;;
15889;SDS011;8043;49.388;12.128;2023-07-20T23:36:06;3.45;;;1.55;;
15889;SDS011;8043;49.388;12.128;2023-07-20T23:41:11;2.52;;;1.57;;
15889;SDS011;8043;49.388;12.128;2023-07-20T23:46:13;2.20;;;1.72;;
15889;SDS011;8043;49.388;12.128;2023-07-20T23:51:17;2.60;;;1.62;;
15889;SDS011;8043;49.388;12.128;2023-07-20T23:56:20;3.72;;;1.95;;
